Campanya meteocatpedra

Dades EMA Gisclareny

?
?
Resum diari
Dades diàries de l'estació meteorològica
Temperatura mitjana -0.2 °C
Temperatura màxima 5.0 °C 1:25 TU
Temperatura mínima -2.4 °C 8:56 TU
Humitat relativa mitjana 96%
Precipitació acumulada 15.3 mm
Ratxa màxima del vent sense dades sense dades
Irradiació solar global sense dades

El tram horari està expressat en Temps Universal (TU). Cal sumar una hora en horari d'hivern i dues en horari d'estiu per passar a l'hora oficial.

Gisclareny

Metadades estació meteorol´gica
Municipi Gisclareny
Comarca Berguedà
Altitud 1386 m
Data alta 12.03.1999
Estat actual Operativa
Dades de període
Període
TU
TM
°C
TX
°C
TN
°C
HRM
%
PPT
mm
00:00 - 00:30 4.6 4.6 4.6 99 0.4
00:30 - 01:00 4.7 4.8 4.6 99 0.4
01:00 - 01:30 4.9 5.0 4.9 99 0.1
01:30 - 02:00 2.2 4.9 0.7 98 0.8
02:00 - 02:30 0.3 0.7 0.1 98 0.0
02:30 - 03:00 0.1 0.1 0.1 98 0.0
03:00 - 03:30 0.1 0.1 0.1 99 0.0
03:30 - 04:00 0.0 0.1 0.0 99 0.6
04:00 - 04:30 0.2 0.5 0.1 99 1.0
04:30 - 05:00 0.7 1.3 0.4 98 0.9
05:00 - 05:30 0.9 1.3 -0.1 96 0.9
05:30 - 06:00 -0.3 -0.1 -0.4 98 0.1
06:00 - 06:30 -0.2 -0.1 -0.3 98 0.2
06:30 - 07:00 -0.2 -0.1 -0.5 98 0.3
07:00 - 07:30 -0.7 -0.4 -1.0 98 0.1
07:30 - 08:00 -1.3 -1.0 -1.7 98 0.1
08:00 - 08:30 -2.2 -1.9 -2.4 98 0.0
08:30 - 09:00 -2.2 -2.0 -2.4 98 0.1
09:00 - 09:30 -2.1 -1.8 -2.3 97 0.0
09:30 - 10:00 -1.5 -1.3 -1.9 95 0.1
10:00 - 10:30 -1.5 -1.4 -1.6 95 0.1
10:30 - 11:00 -1.5 -1.3 -1.8 96 0.0
11:00 - 11:30 -1.2 -1.0 -1.6 95 0.1
11:30 - 12:00 -1.6 -1.3 -1.7 96 0.0
12:00 - 12:30 -0.9 -0.4 -1.3 96 0.1
12:30 - 13:00 0.1 0.6 -0.4 93 0.3
13:00 - 13:30 0.2 0.5 0.1 92 1.0
13:30 - 14:00 0.3 0.8 0.2 91 0.9
14:00 - 14:30 0.9 1.0 0.7 91 1.8
14:30 - 15:00 0.9 1.1 0.7 89 1.5
15:00 - 15:30 1.0 1.2 0.6 89 0.9
15:30 - 16:00 0.5 0.7 0.3 92 1.3
16:00 - 16:30 0.0 0.3 -0.2 95 0.5
16:30 - 17:00 -0.2 -0.1 -0.3 96 0.4
17:00 - 17:30 -0.4 -0.2 -0.6 97 0.2
17:30 - 18:00 -0.8 -0.6 -1.1 98 0.1
18:00 - 18:30 -1.0 -0.8 -1.1 91 0.0
18:30 - 19:00 -1.2 -0.9 -1.2 92 0.0
19:00 - 19:30 -1.2 -1.1 -1.2 95 0.0
19:30 - 20:00 -1.3 -1.1 -1.5 96 0.0
20:00 - 20:30 -1.6 -1.5 -1.6 96 0.0
20:30 - 21:00 -1.8 -1.6 -1.9 96 0.0
21:00 - 21:30 -1.5 -1.3 -1.7 97 0.0
21:30 - 22:00 -1.2 -1.0 -1.3 97 0.0
22:00 - 22:30 -0.9 -0.8 -1.0 96 0.0
22:30 - 23:00 -0.7 -0.7 -0.8 96 0.0

Les dades en taronja només han passat un control de qualitat automàtic. Resta pendent la seva validació definitiva.